Arivaca, Arizona
Current Conditions -  °F | °C
As of 4:54 PM on Friday 21 Nov 2014 (Local Time) from KOLS Reporting Station
Scattered Clouds Scattered Clouds  
Wind Chill: 61°   Ceiling: Unl
Heat Index: 61°   Visibility: 10mi
Dew Point: 25°   Wind: 9mph
Humidity: 25%   Direction: 190°S
Pressure: 29.92"   Gusts: NA
Location:  31.57°N, 111.33°W
Report Text: KOLS 212354Z AUTO 19008KT 10SM SCT080 16/M04 A2992 RMK AO2 SLP104 T01611039 10194 20161 53001
Loading
Personal Weather Stations






























Interactive Weather Map New forecast layout! Learn more

10-Day Weather Forecast

Advertisements
Track Severe Weather on mobile